createdAt,value
2023-03-07T00:02:17.648Z,100129.94
2023-03-07T00:04:46.346Z,100147.09
2023-03-07T00:07:14.171Z,100142.66
2023-03-07T00:09:42.137Z,100138.53
2023-03-07T00:12:12.777Z,100138.34
2023-03-07T00:14:40.081Z,100139.81
2023-03-07T00:17:07.365Z,100155.88
2023-03-07T00:19:34.586Z,100151.34
2023-03-07T00:22:01.920Z,100142.41
2023-03-07T00:24:29.725Z,100131.91
2023-03-07T00:26:57.009Z,100130.44
2023-03-07T00:29:24.326Z,100129.56
2023-03-07T00:31:52.616Z,100131.09
2023-03-07T00:34:19.861Z,100130.72
2023-03-07T00:36:47.182Z,100132.25
2023-03-07T00:39:14.568Z,100134.38
2023-03-07T00:41:42.458Z,100133.97
2023-03-07T00:44:10.221Z,100126.03
2023-03-07T00:46:37.879Z,100124.09
2023-03-07T00:49:05.235Z,100127.59
2023-03-07T00:51:32.895Z,100122.34
2023-03-07T00:54:00.817Z,100117.28
2023-03-07T00:56:28.080Z,100114.56
2023-03-07T00:58:55.915Z,100113.53
2023-03-07T01:01:25.033Z,100112.94
2023-03-07T01:03:56.283Z,100110.25
2023-03-07T01:06:26.648Z,100109.78
2023-03-07T01:08:57.760Z,100105.94
2023-03-07T01:11:27.206Z,100109.03
2023-03-07T01:14:00.152Z,100111.91
2023-03-07T01:16:38.403Z,100110.91
2023-03-07T01:19:08.366Z,100105.09
2023-03-07T01:21:38.906Z,100100.19
2023-03-07T01:24:08.167Z,100094.56
2023-03-07T01:26:35.613Z,100092.66
2023-03-07T01:29:05.316Z,100090.44
2023-03-07T01:31:37.440Z,100092.44
2023-03-07T01:34:06.150Z,100085.34
2023-03-07T01:36:36.768Z,100091.22
2023-03-07T01:39:10.423Z,100084.06
2023-03-07T01:41:40.938Z,100078.53
2023-03-07T01:44:19.907Z,100074.03
2023-03-07T01:46:47.648Z,100074.84
2023-03-07T01:49:27.004Z,100072.56
2023-03-07T01:52:00.357Z,100070.31
2023-03-07T01:54:30.343Z,100065.97
2023-03-07T01:56:58.685Z,100069.44
2023-03-07T01:59:31.660Z,100068.44
2023-03-07T02:02:04.271Z,100073.13
2023-03-07T02:05:03.942Z,100079.09
2023-03-07T02:07:40.579Z,100075.03
2023-03-07T02:10:10.762Z,100082.69
2023-03-07T02:12:38.398Z,100077.41
2023-03-07T02:15:08.851Z,100082.19
2023-03-07T02:17:36.616Z,100077.56
2023-03-07T02:20:14.289Z,100072.91
2023-03-07T02:22:42.119Z,100073.47
2023-03-07T02:25:18.918Z,100069.16
2023-03-07T02:27:47.518Z,100063.13
2023-03-07T02:30:14.974Z,100066.06
2023-03-07T02:32:42.438Z,100063.28
2023-03-07T02:35:20.140Z,100056.19
2023-03-07T02:37:53.842Z,100062.78
2023-03-07T02:40:25.094Z,100064.75
2023-03-07T02:42:56.123Z,100067.06
2023-03-07T02:45:24.134Z,100073.44
2023-03-07T02:47:51.926Z,100062.13
2023-03-07T02:50:19.651Z,100066.22
2023-03-07T02:52:51.970Z,100061.03
2023-03-07T02:55:20.009Z,100060.25
2023-03-07T02:57:53.790Z,100052.19
2023-03-07T03:00:21.506Z,100054.19
2023-03-07T03:02:48.980Z,100045.22
2023-03-07T03:05:16.474Z,100044.00
2023-03-07T03:07:44.886Z,100039.69
2023-03-07T03:10:12.399Z,100038.16
2023-03-07T03:12:39.727Z,100051.22
2023-03-07T03:15:08.602Z,100042.78
2023-03-07T03:17:36.364Z,100045.34
2023-03-07T03:20:11.869Z,100049.16
2023-03-07T03:22:40.376Z,100046.63
2023-03-07T03:25:11.498Z,100053.16
2023-03-07T03:27:41.461Z,100047.59
2023-03-07T03:30:12.655Z,100051.47
2023-03-07T03:32:41.637Z,100051.25
2023-03-07T03:35:11.231Z,100048.75
2023-03-07T03:37:39.426Z,100055.16
2023-03-07T03:40:14.366Z,100047.63
2023-03-07T03:42:44.281Z,100054.88
2023-03-07T03:45:14.904Z,100052.69
2023-03-07T03:47:42.986Z,100053.19
2023-03-07T03:50:11.451Z,100049.38
2023-03-07T03:52:39.658Z,100056.78
2023-03-07T03:55:07.400Z,100062.66
2023-03-07T03:57:34.822Z,100059.75
2023-03-07T04:00:04.937Z,100058.66
2023-03-07T04:02:40.528Z,100054.47
2023-03-07T04:05:13.056Z,100050.94
2023-03-07T04:07:40.442Z,100048.91
2023-03-07T04:10:08.491Z,100048.44
2023-03-07T04:12:36.526Z,100046.25
2023-03-07T04:15:07.265Z,100051.16
2023-03-07T04:17:35.354Z,100060.69
2023-03-07T04:20:04.859Z,100059.59
2023-03-07T04:22:32.900Z,100058.84
2023-03-07T04:25:00.265Z,100049.59
2023-03-07T04:27:29.404Z,100051.56
2023-03-07T04:29:57.301Z,100053.59
2023-03-07T04:32:25.613Z,100048.63
2023-03-07T04:34:53.150Z,100051.69
2023-03-07T04:37:20.412Z,100054.03
2023-03-07T04:39:48.104Z,100055.38
2023-03-07T04:42:16.648Z,100050.19
2023-03-07T04:44:44.471Z,100055.75
2023-03-07T04:47:12.022Z,100056.88
2023-03-07T04:49:39.470Z,100051.59
2023-03-07T04:52:07.631Z,100060.69
2023-03-07T04:54:35.221Z,100046.81
2023-03-07T04:57:04.014Z,100053.41
2023-03-07T04:59:31.882Z,100054.53
2023-03-07T05:01:59.354Z,100059.13
2023-03-07T05:04:27.654Z,100060.19
2023-03-07T05:06:55.566Z,100053.81
2023-03-07T05:09:23.106Z,100052.31
2023-03-07T05:11:53.263Z,100053.75
2023-03-07T05:14:20.890Z,100053.78
2023-03-07T05:16:48.163Z,100059.88
2023-03-07T05:19:15.931Z,100060.97
2023-03-07T05:21:44.157Z,100057.53
2023-03-07T05:24:12.145Z,100059.38
2023-03-07T05:26:39.569Z,100058.56
2023-03-07T05:29:07.593Z,100065.91
2023-03-07T05:31:36.234Z,100064.03
2023-03-07T05:34:03.714Z,100063.75
2023-03-07T05:36:31.185Z,100063.09
2023-03-07T05:39:00.156Z,100067.44
2023-03-07T05:41:27.618Z,100069.63
2023-03-07T05:43:55.386Z,100077.50
2023-03-07T05:46:23.375Z,100073.44
2023-03-07T05:48:51.158Z,100080.72
2023-03-07T05:51:18.478Z,100082.31
2023-03-07T05:53:46.486Z,100076.22
2023-03-07T05:56:14.339Z,100091.78
2023-03-07T05:58:42.809Z,100086.81
2023-03-07T06:01:11.000Z,100082.56
2023-03-07T06:03:38.538Z,100090.50
2023-03-07T06:06:07.044Z,100095.16
2023-03-07T06:08:34.386Z,100092.72
2023-03-07T06:11:02.068Z,100098.53
2023-03-07T06:13:31.119Z,100089.81
2023-03-07T06:15:58.468Z,100095.16
2023-03-07T06:18:26.264Z,100093.53
2023-03-07T06:21:05.342Z,100091.66
2023-03-07T06:23:37.327Z,100091.78
2023-03-07T06:26:12.335Z,100098.13
2023-03-07T06:28:41.500Z,100102.66
2023-03-07T06:31:14.276Z,100091.53
2023-03-07T06:33:43.388Z,100092.44
2023-03-07T06:36:14.514Z,100091.66
2023-03-07T06:38:44.939Z,100084.31
2023-03-07T06:41:12.570Z,100094.13
2023-03-07T06:43:40.554Z,100094.06
2023-03-07T06:46:08.088Z,100097.00
2023-03-07T06:48:39.421Z,100095.69
2023-03-07T06:51:10.489Z,100087.28
2023-03-07T06:53:41.159Z,100087.28
2023-03-07T06:56:08.613Z,100093.41
2023-03-07T06:58:36.874Z,100091.09
2023-03-07T07:01:04.653Z,100090.69
2023-03-07T07:03:35.720Z,100102.88
2023-03-07T07:06:03.708Z,100093.91
2023-03-07T07:08:32.019Z,100099.97
2023-03-07T07:10:59.481Z,100103.56
2023-03-07T07:13:27.608Z,100107.09
2023-03-07T07:15:55.022Z,100101.28
2023-03-07T07:18:24.146Z,100099.09
2023-03-07T07:20:55.881Z,100098.06
2023-03-07T07:23:26.463Z,100096.47
2023-03-07T07:25:55.074Z,100096.84
2023-03-07T07:28:23.182Z,100104.72
2023-03-07T07:30:50.997Z,100103.94
2023-03-07T07:33:19.531Z,100100.78
2023-03-07T07:35:50.284Z,100099.56
2023-03-07T07:38:18.332Z,100108.56
2023-03-07T07:40:45.725Z,100102.72
2023-03-07T07:43:17.884Z,100114.88
2023-03-07T07:45:56.756Z,100109.13
2023-03-07T07:48:25.310Z,100112.53
2023-03-07T07:50:53.265Z,100115.69
2023-03-07T07:53:21.597Z,100120.09
2023-03-07T07:55:50.222Z,100107.53
2023-03-07T07:58:17.906Z,100107.97
2023-03-07T08:00:46.104Z,100107.13
2023-03-07T08:03:13.898Z,100112.34
2023-03-07T08:05:48.911Z,100108.34
2023-03-07T08:08:18.154Z,100115.66
2023-03-07T08:10:49.203Z,100109.69
2023-03-07T08:13:17.988Z,100114.81
2023-03-07T08:15:45.364Z,100114.56
2023-03-07T08:18:13.479Z,100107.88
2023-03-07T08:20:41.384Z,100121.28
2023-03-07T08:23:08.914Z,100126.47
2023-03-07T08:25:36.886Z,100122.06
2023-03-07T08:28:05.439Z,100132.16
2023-03-07T08:30:35.095Z,100130.03
2023-03-07T08:33:02.537Z,100130.72
2023-03-07T08:35:31.741Z,100127.97
2023-03-07T08:38:00.499Z,100128.44
2023-03-07T08:40:30.200Z,100128.69
2023-03-07T08:42:59.441Z,100127.69
2023-03-07T08:45:26.870Z,100128.34
2023-03-07T08:47:55.997Z,100126.94
2023-03-07T08:50:26.074Z,100126.41
2023-03-07T08:52:54.173Z,100120.84
2023-03-07T08:55:22.032Z,100121.97
2023-03-07T08:57:49.858Z,100118.88
2023-03-07T09:00:18.633Z,100121.53
2023-03-07T09:02:46.253Z,100132.09
2023-03-07T09:05:13.979Z,100122.47
2023-03-07T09:07:41.262Z,100115.06
2023-03-07T09:10:11.492Z,100109.94
2023-03-07T09:12:39.448Z,100105.25
2023-03-07T09:15:08.648Z,100102.22
2023-03-07T09:17:36.504Z,100092.91
2023-03-07T09:20:04.735Z,100099.84
2023-03-07T09:22:32.524Z,100098.22
2023-03-07T09:24:59.932Z,100103.47
2023-03-07T09:27:27.935Z,100096.72
2023-03-07T09:29:55.910Z,100100.44
2023-03-07T09:32:23.450Z,100095.44
2023-03-07T09:34:52.778Z,100099.09
2023-03-07T09:37:20.298Z,100100.09
2023-03-07T09:39:49.889Z,100096.63
2023-03-07T09:42:21.928Z,100098.75
2023-03-07T09:45:26.802Z,100096.53
2023-03-07T09:48:30.599Z,100097.66
2023-03-07T09:51:19.996Z,100094.53
2023-03-07T09:54:24.354Z,100094.38
2023-03-07T09:57:00.108Z,100080.31
2023-03-07T09:59:38.987Z,100083.31
2023-03-07T10:02:22.654Z,100084.47
2023-03-07T10:04:52.941Z,100095.19
2023-03-07T10:07:24.269Z,100099.16
2023-03-07T10:09:56.484Z,100093.13
2023-03-07T10:13:01.296Z,100086.97
2023-03-07T10:15:42.499Z,100085.91
2023-03-07T10:18:21.317Z,100080.91
2023-03-07T10:21:29.708Z,100077.03
2023-03-07T10:24:21.647Z,100079.72
2023-03-07T10:27:04.392Z,100071.50
2023-03-07T10:29:37.794Z,100066.72
2023-03-07T10:32:18.704Z,100069.00
2023-03-07T10:34:51.611Z,100056.13
2023-03-07T10:37:21.124Z,100062.84
2023-03-07T10:39:56.837Z,100058.69
2023-03-07T10:42:27.489Z,100057.72
2023-03-07T10:44:55.553Z,100063.44
2023-03-07T10:47:25.511Z,100053.41
2023-03-07T10:50:00.552Z,100060.94
2023-03-07T10:52:35.483Z,100054.16
2023-03-07T10:55:38.617Z,100053.78
2023-03-07T10:58:24.594Z,100053.72
2023-03-07T11:01:07.310Z,100047.69
2023-03-07T11:04:01.277Z,100043.94
2023-03-07T11:06:35.938Z,100040.25
2023-03-07T11:09:16.256Z,100040.84
2023-03-07T11:11:50.746Z,100029.84
2023-03-07T11:14:19.042Z,100031.09
2023-03-07T11:16:51.426Z,100029.00
2023-03-07T11:19:39.661Z,100018.75
2023-03-07T11:22:33.551Z,100004.38
2023-03-07T11:25:23.152Z,100000.41
2023-03-07T11:27:50.416Z,100003.16
2023-03-07T11:30:35.854Z,100002.25
2023-03-07T11:33:13.802Z,99992.88
2023-03-07T11:36:00.171Z,99993.91
2023-03-07T11:38:36.124Z,99984.03
2023-03-07T11:41:28.044Z,99978.56
2023-03-07T11:44:10.883Z,99979.63
2023-03-07T11:46:59.854Z,99967.84
2023-03-07T11:50:04.305Z,99981.31
2023-03-07T11:52:56.724Z,99975.09
2023-03-07T11:55:43.424Z,99980.88
2023-03-07T11:58:26.153Z,99969.94
2023-03-07T12:00:59.334Z,99964.06
2023-03-07T12:03:48.394Z,99962.16
2023-03-07T12:06:25.359Z,99962.31
2023-03-07T12:09:03.465Z,99959.16
2023-03-07T12:11:46.429Z,99950.91
2023-03-07T12:14:19.363Z,99942.59
2023-03-07T12:17:06.855Z,99943.50
2023-03-07T12:20:18.970Z,99946.63
2023-03-07T12:23:23.343Z,99955.44
2023-03-07T12:25:55.656Z,99939.69
2023-03-07T12:28:48.970Z,99944.25
2023-03-07T12:31:34.532Z,99942.44
2023-03-07T12:34:01.892Z,99934.06
2023-03-07T12:36:38.496Z,99930.41
2023-03-07T12:39:31.683Z,99925.75
2023-03-07T12:42:20.062Z,99924.97
2023-03-07T12:44:52.173Z,99924.63
2023-03-07T12:47:30.708Z,99940.31
2023-03-07T12:50:26.333Z,99939.97
2023-03-07T12:53:09.917Z,99944.69
2023-03-07T12:55:43.214Z,99941.47
2023-03-07T12:58:30.158Z,99934.53
2023-03-07T13:01:27.197Z,99927.47
2023-03-07T13:04:19.540Z,99913.69
2023-03-07T13:06:48.297Z,99911.22
2023-03-07T13:09:25.158Z,99904.38
2023-03-07T13:12:23.902Z,99906.81
2023-03-07T13:14:56.146Z,99907.13
2023-03-07T13:17:35.586Z,99897.34
2023-03-07T13:20:34.189Z,99901.63
2023-03-07T13:23:23.313Z,99908.72
2023-03-07T13:25:57.979Z,99896.28
2023-03-07T13:28:43.126Z,99904.47
2023-03-07T13:31:28.173Z,99905.59
2023-03-07T13:33:56.548Z,99904.94
2023-03-07T13:36:38.744Z,99894.91
2023-03-07T13:39:35.401Z,99902.50
2023-03-07T13:42:04.010Z,99899.59
2023-03-07T13:44:39.545Z,99895.97
2023-03-07T13:47:43.236Z,99891.94
2023-03-07T13:50:35.758Z,99889.69
2023-03-07T13:53:10.920Z,99888.09
2023-03-07T13:55:41.952Z,99885.53
2023-03-07T13:58:20.455Z,99878.41
2023-03-07T14:00:58.304Z,99888.34
2023-03-07T14:03:32.991Z,99889.28
2023-03-07T14:06:08.946Z,99888.22
2023-03-07T14:08:37.826Z,99882.34
2023-03-07T14:11:14.744Z,99871.81
2023-03-07T14:13:54.304Z,99865.97
2023-03-07T14:16:35.958Z,99867.56
2023-03-07T14:19:22.875Z,99868.94
2023-03-07T14:22:03.837Z,99867.22
2023-03-07T14:24:37.440Z,99864.59
2023-03-07T14:27:12.027Z,99878.91
2023-03-07T14:29:51.926Z,99872.25
2023-03-07T14:32:31.059Z,99862.34
2023-03-07T14:34:59.571Z,99869.41
2023-03-07T14:37:31.269Z,99865.34
2023-03-07T14:39:59.403Z,99858.34
2023-03-07T14:42:41.897Z,99833.50
2023-03-07T14:45:37.513Z,99839.88
2023-03-07T14:48:14.756Z,99824.28
2023-03-07T14:50:44.437Z,99813.59
2023-03-07T14:53:25.944Z,99816.44
2023-03-07T14:55:55.876Z,99824.72
2023-03-07T14:58:35.876Z,99827.97
2023-03-07T15:01:06.318Z,99825.81
2023-03-07T15:03:34.143Z,99806.94
2023-03-07T15:06:03.805Z,99801.69
2023-03-07T15:08:38.512Z,99806.72
2023-03-07T15:11:36.860Z,99813.72
2023-03-07T15:14:12.231Z,99812.63
2023-03-07T15:16:46.192Z,99810.34
2023-03-07T15:19:35.194Z,99810.84
2023-03-07T15:22:06.153Z,99808.19
2023-03-07T15:24:45.167Z,99820.00
2023-03-07T15:27:17.320Z,99819.72
2023-03-07T15:29:48.624Z,99819.59
2023-03-07T15:32:41.089Z,99824.88
2023-03-07T15:35:08.861Z,99843.75
2023-03-07T15:37:50.548Z,99843.63
2023-03-07T15:40:21.749Z,99832.19
2023-03-07T15:42:52.263Z,99824.56
2023-03-07T15:45:33.453Z,99826.75
2023-03-07T15:48:09.423Z,99837.00
2023-03-07T15:50:37.724Z,99836.16
2023-03-07T15:53:14.383Z,99842.91
2023-03-07T15:55:42.849Z,99853.94
2023-03-07T15:58:14.966Z,99849.47
2023-03-07T16:00:42.567Z,99843.13
2023-03-07T16:03:31.496Z,99844.56
2023-03-07T16:06:01.290Z,99832.81
2023-03-07T16:08:28.898Z,99818.28
2023-03-07T16:11:02.798Z,99824.63
2023-03-07T16:13:33.702Z,99839.28
2023-03-07T16:16:13.616Z,99832.59
2023-03-07T16:18:42.569Z,99826.78
2023-03-07T16:21:13.814Z,99835.25
2023-03-07T16:23:42.077Z,99846.22
2023-03-07T16:26:16.475Z,99839.56
2023-03-07T16:28:44.311Z,99844.72
2023-03-07T16:31:13.463Z,99845.47
2023-03-07T16:33:42.056Z,99846.31
2023-03-07T16:36:11.324Z,99837.03
2023-03-07T16:38:38.782Z,99836.53
2023-03-07T16:41:17.892Z,99841.88
2023-03-07T16:43:47.159Z,99835.13
2023-03-07T16:46:17.659Z,99839.16
2023-03-07T16:48:46.422Z,99836.56
2023-03-07T16:51:20.925Z,99830.16
2023-03-07T16:53:49.459Z,99826.50
2023-03-07T16:56:38.599Z,99823.66
2023-03-07T16:59:08.262Z,99837.91
2023-03-07T17:01:35.771Z,99832.56
2023-03-07T17:04:03.525Z,99838.84
2023-03-07T17:06:39.124Z,99842.94
2023-03-07T17:09:09.473Z,99842.72
2023-03-07T17:11:44.726Z,99848.91
2023-03-07T17:14:14.714Z,99844.66
2023-03-07T17:16:45.452Z,99851.41
2023-03-07T17:19:28.689Z,99852.44
2023-03-07T17:21:58.692Z,99854.97
2023-03-07T17:24:27.482Z,99865.28
2023-03-07T17:26:56.821Z,99858.78
2023-03-07T17:29:28.787Z,99863.16
2023-03-07T17:31:56.994Z,99856.53
2023-03-07T17:34:30.547Z,99854.28
2023-03-07T17:37:00.306Z,99853.78
2023-03-07T17:39:29.908Z,99856.50
2023-03-07T17:41:59.613Z,99864.09
2023-03-07T17:44:28.204Z,99856.97
2023-03-07T17:46:56.113Z,99866.69
2023-03-07T17:49:24.378Z,99872.66
2023-03-07T17:51:52.877Z,99874.44
2023-03-07T17:54:20.699Z,99871.44
2023-03-07T17:56:48.490Z,99879.81
2023-03-07T17:59:15.746Z,99869.91
2023-03-07T18:01:43.015Z,99880.88
2023-03-07T18:04:10.439Z,99879.00
2023-03-07T18:06:39.946Z,99883.91
2023-03-07T18:09:09.201Z,99892.34
2023-03-07T18:11:36.839Z,99892.59
2023-03-07T18:14:04.154Z,99898.06
2023-03-07T18:16:32.065Z,99893.66
2023-03-07T18:19:01.779Z,99895.66
2023-03-07T18:21:31.208Z,99897.25
2023-03-07T18:24:00.684Z,99907.78
2023-03-07T18:26:28.252Z,99901.63
2023-03-07T18:28:56.526Z,99900.97
2023-03-07T18:31:28.540Z,99900.78
2023-03-07T18:33:56.758Z,99900.03
2023-03-07T18:36:25.871Z,99893.28
2023-03-07T18:38:53.758Z,99896.72
2023-03-07T18:41:23.853Z,99903.44
2023-03-07T18:43:53.690Z,99911.03
2023-03-07T18:46:24.688Z,99906.69
2023-03-07T18:48:52.683Z,99906.59
2023-03-07T18:51:24.905Z,99913.88
2023-03-07T18:53:54.095Z,99912.88
2023-03-07T18:56:21.488Z,99912.53
2023-03-07T18:58:49.117Z,99912.69
2023-03-07T19:01:20.543Z,99901.81
2023-03-07T19:03:49.642Z,99904.72
2023-03-07T19:06:19.430Z,99907.44
2023-03-07T19:08:47.066Z,99905.53
2023-03-07T19:11:15.496Z,99907.19
2023-03-07T19:13:43.789Z,99900.25
2023-03-07T19:16:18.170Z,99891.59
2023-03-07T19:18:46.326Z,99880.31
2023-03-07T19:21:16.605Z,99877.81
2023-03-07T19:23:43.880Z,99884.34
2023-03-07T19:26:13.572Z,99891.72
2023-03-07T19:28:41.363Z,99904.53
2023-03-07T19:31:21.148Z,99905.25
2023-03-07T19:33:49.777Z,99915.16
2023-03-07T19:36:21.145Z,99909.78
2023-03-07T19:38:49.893Z,99904.75
2023-03-07T19:41:20.261Z,99892.44
2023-03-07T19:43:48.098Z,99895.09
2023-03-07T19:46:17.054Z,99893.41
2023-03-07T19:48:44.718Z,99897.19
2023-03-07T19:51:20.103Z,99899.00
2023-03-07T19:53:48.843Z,99900.34
2023-03-07T19:56:25.467Z,99905.59
2023-03-07T19:58:53.540Z,99899.78
2023-03-07T20:01:21.656Z,99904.56
2023-03-07T20:03:50.997Z,99904.66
2023-03-07T20:06:24.394Z,99900.47
2023-03-07T20:08:53.903Z,99900.56
2023-03-07T20:11:30.707Z,99896.97
2023-03-07T20:14:00.223Z,99889.06
2023-03-07T20:16:29.511Z,99889.91
2023-03-07T20:18:59.678Z,99882.88
2023-03-07T20:21:29.108Z,99873.75
2023-03-07T20:24:00.772Z,99870.72
2023-03-07T20:26:33.668Z,99870.63
2023-03-07T20:29:02.655Z,99883.66
2023-03-07T20:31:30.708Z,99877.06
2023-03-07T20:34:00.138Z,99879.31
2023-03-07T20:36:34.285Z,99891.38
2023-03-07T20:39:07.546Z,99893.47
2023-03-07T20:41:35.688Z,99905.06
2023-03-07T20:44:06.275Z,99905.34
2023-03-07T20:46:35.859Z,99916.63
2023-03-07T20:49:04.261Z,99913.06
2023-03-07T20:51:34.646Z,99913.03
2023-03-07T20:54:04.660Z,99921.47
2023-03-07T20:56:34.553Z,99913.06
2023-03-07T20:59:02.188Z,99909.88
2023-03-07T21:01:32.491Z,99898.84
2023-03-07T21:04:05.891Z,99901.25
2023-03-07T21:06:34.556Z,99905.94
2023-03-07T21:09:06.120Z,99911.91
2023-03-07T21:11:34.102Z,99904.06
2023-03-07T21:14:01.633Z,99914.16
2023-03-07T21:16:30.782Z,99916.22
2023-03-07T21:19:01.612Z,99916.50
2023-03-07T21:21:30.706Z,99921.19
2023-03-07T21:23:59.233Z,99916.03
2023-03-07T21:26:29.391Z,99914.84
2023-03-07T21:28:57.256Z,99922.56
2023-03-07T21:31:31.104Z,99915.88
2023-03-07T21:34:01.652Z,99912.50
2023-03-07T21:36:31.362Z,99922.00
2023-03-07T21:39:00.370Z,99922.25
2023-03-07T21:41:28.308Z,99926.22
2023-03-07T21:43:57.437Z,99923.50
2023-03-07T21:46:26.435Z,99923.50
2023-03-07T21:48:54.225Z,99925.75
2023-03-07T21:51:22.234Z,99921.59
2023-03-07T21:53:49.871Z,99923.25
2023-03-07T21:56:18.407Z,99925.28
2023-03-07T21:58:49.950Z,99937.13
2023-03-07T22:01:24.790Z,99930.22
2023-03-07T22:03:54.329Z,99928.06
2023-03-07T22:06:23.327Z,99933.56
2023-03-07T22:08:51.205Z,99933.38
2023-03-07T22:11:18.614Z,99926.63
2023-03-07T22:13:46.640Z,99935.88
2023-03-07T22:16:17.209Z,99936.69
2023-03-07T22:18:45.171Z,99941.63
2023-03-07T22:21:14.562Z,99945.44
2023-03-07T22:23:42.340Z,99947.38
2023-03-07T22:26:11.666Z,99950.50
2023-03-07T22:28:41.016Z,99955.63
2023-03-07T22:31:11.601Z,99965.97
2023-03-07T22:33:40.334Z,99962.56
2023-03-07T22:36:11.042Z,99967.50
2023-03-07T22:38:38.784Z,99963.91
2023-03-07T22:41:15.490Z,99963.75
2023-03-07T22:43:43.100Z,99959.31
2023-03-07T22:46:11.246Z,99958.44
2023-03-07T22:48:39.473Z,99959.06
2023-03-07T22:51:20.203Z,99965.47
2023-03-07T22:53:48.105Z,99961.19
2023-03-07T22:56:20.755Z,99956.94
2023-03-07T22:58:48.104Z,99959.34
